SHASTA DAM (USBR) (SHA)

Elevation: 1067' · SACRAMENTO R basin · Operator: US Bureau of Reclamation

Provisional data, subject to change.
Query executed Thursday at 14:08:30   clock

Select a sensor type for a plot of data.
Note: Reservoir Flows are daily averages.

Earlier

Date RES ELE    STORAGE    RES CHG    TOC STO    ABV TOC    OUTFLOW    INFLOW    EVAP    FNF    RIV REL    PPT INC    RAIN    SPILL    DIS PWR   
 FEET   AF   AF   AF   AF   CFS   CFS   CFS   CFS   CFS   INCHES   INCHES   CFS   CFS  
06/01/2016 1053.49 4160600 -6476 4552100 -391500 6889 3922 298 4149 0 0.00 63.97 0 6889
06/02/2016 1053.25 4153842 -6758 4552100 -398258 7259 4125 273 4232 0 0.00 63.97 0 7259
06/03/2016 1052.98 4146241 -7601 4552100 -405859 7288 3745 289 3606 0 0.00 63.97 0 7288
06/04/2016 1052.72 4138954 -7287 4552100 -413146 6875 3481 280 4261 0 0.00 63.97 0 6875
06/05/2016 1052.35 4128583 -10371 4552100 -423517 7503 2521 247 3359 0 0.00 63.97 0 7503
06/06/2016 1052.13 4122417 -6166 4552100 -429683 7299 4371 181 3920 0 0.00 63.97 0 7299
06/07/2016 1051.84 4114309 -8108 4552100 -437791 7479 3720 329 3965 0 0.00 63.97 0 7479
06/08/2016 1051.55 4106218 -8091 4552100 -445882 7615 3782 246 3819 0 0.00 63.97 0 7615
06/09/2016 1051.28 4098686 -7532 4552100 -453414 7472 3937 262 4075 e 0 0.00 63.97 0 7472
06/10/2016 1051.05 4092269 -6417 4552100 -459831 7986 5029 278 4334 0 0.00 63.97 0 7986
06/11/2016 1050.64 4080878 -11391 4552100 -471222 7633 2200 310 3457 0 0.00 63.97 0 7633
06/12/2016 1050.24 4069772 -11106 4552100 -482328 7369 2072 302 3285 0 0.00 63.97 0 7369
06/13/2016 1049.99 4062832 -6940 4552100 -489268 7145 3907 261 3185 0 0.00 63.97 0 7145
06/14/2016 1049.67 4053988 -8844 4552100 -498112 7564 3504 399 3525 0 0.00 63.97 0 7564
06/15/2016 1049.42 4047080 -6908 4552100 -505020 7449 4145 179 3579 150 0.00 63.97 0 7299
06/16/2016 1049.18 4040447 -6633 -- -- 7648 4418 114 3902 0 0.03 64.00 0 7648
06/17/2016 1048.98 4034923 -5524 4552100 -- 7501 4854 138 4741 0 0.08 64.08 0 7501
06/18/2016 1048.62 4025021 -9902 4552100 -- 8269 3301 24 4533 e 0 1.35 65.43 0 8269
06/19/2016 1048.22 4014020 -11001 4552100 -- 8341 3062 267 4533 e 0 0.00 65.43 0 8341
06/20/2016 1047.93 4006053 -7967 4552100 -546047 8357 4582 242 3415 0 0.00 65.43 0 8357
06/21/2016 1047.62 3997567 -8486 4552100 -554533 8510 4595 363 3524 0 0.00 65.43 0 8510
06/22/2016 1047.38 3990997 -6570 4552100 -561103 7536 4474 250 3677 0 0.00 65.43 0 7536
06/23/2016 1047.11 3983605 -7392 4552100 -568495 7810 4364 281 3580 0 0.00 65.43 0 7810
06/24/2016 1046.68 3971875 -11730 4552100 -580225 8313 2672 273 3481 0 0.00 65.43 0 8313
06/25/2016 1046.23 3959614 -12261 4552100 -592486 8238 2345 288 3123 0 0.00 65.43 0 8238
06/26/2016 1045.85 3949280 -10334 4552100 -602820 7694 2732 248 3393 0 0.00 65.43 0 7694
06/27/2016 1045.60 3942501 -6779 4552100 -- 7575 4477 320 3499 0 0.00 65.43 0 7575
06/28/2016 1045.32 3934909 -7592 4552100 -617191 7800 4451 479 3353 0 0.00 65.43 0 7800
06/29/2016 1045.07 3928130 -6779 4552100 -623970 7311 4172 279 3300 0 0.00 65.43 0 7311
06/30/2016 -- -- -- -- -- -- -- -- -- -- -- -- -- --

Later | Latest

Warning! This data is preliminary and subject to revision.

Show SHA Map | Plot SHA Data | 1 Month SHA Data | Real-Time SHA Data | SHA Info